sensor_id;sensor_type;location;lat;lon;timestamp;pressure;altitude;pressure_sealevel;temperature;humidity
70103;BME280;57470;50.034;15.256;2024-03-02T00:01:06;98462.94;;;10.79;100.00
70103;BME280;57470;50.034;15.256;2024-03-02T00:03:32;98463.25;;;10.86;100.00
70103;BME280;57470;50.034;15.256;2024-03-02T00:05:58;98458.53;;;10.89;100.00
70103;BME280;57470;50.034;15.256;2024-03-02T00:08:24;98467.72;;;10.65;100.00
70103;BME280;57470;50.034;15.256;2024-03-02T00:10:51;98464.69;;;10.69;100.00
70103;BME280;57470;50.034;15.256;2024-03-02T00:13:20;98462.56;;;10.42;100.00
70103;BME280;57470;50.034;15.256;2024-03-02T00:15:51;98461.63;;;10.32;100.00
70103;BME280;57470;50.034;15.256;2024-03-02T00:18:24;98464.25;;;10.43;100.00
70103;BME280;57470;50.034;15.256;2024-03-02T00:20:52;98466.81;;;10.34;100.00
70103;BME280;57470;50.034;15.256;2024-03-02T00:23:18;98475.88;;;10.31;100.00
70103;BME280;57470;50.034;15.256;2024-03-02T00:25:49;98477.34;;;10.35;100.00
70103;BME280;57470;50.034;15.256;2024-03-02T00:28:30;98468.44;;;10.25;100.00
70103;BME280;57470;50.034;15.256;2024-03-02T00:31:10;98476.41;;;10.25;100.00
70103;BME280;57470;50.034;15.256;2024-03-02T00:33:44;98477.34;;;10.35;100.00
70103;BME280;57470;50.034;15.256;2024-03-02T00:36:12;98476.38;;;10.57;100.00
70103;BME280;57470;50.034;15.256;2024-03-02T00:38:48;98478.69;;;10.50;100.00
70103;BME280;57470;50.034;15.256;2024-03-02T00:41:29;98477.31;;;10.56;100.00
70103;BME280;57470;50.034;15.256;2024-03-02T00:46:22;98472.66;;;10.48;100.00
70103;BME280;57470;50.034;15.256;2024-03-02T00:51:14;98474.88;;;10.85;100.00
70103;BME280;57470;50.034;15.256;2024-03-02T00:53:39;98463.22;;;10.56;100.00
70103;BME280;57470;50.034;15.256;2024-03-02T00:56:09;98472.72;;;10.58;100.00
70103;BME280;57470;50.034;15.256;2024-03-02T00:58:34;98469.88;;;10.50;100.00
70103;BME280;57470;50.034;15.256;2024-03-02T01:01:00;98473.06;;;10.44;100.00
70103;BME280;57470;50.034;15.256;2024-03-02T01:03:25;98468.41;;;10.36;100.00
70103;BME280;57470;50.034;15.256;2024-03-02T01:05:51;98465.00;;;10.34;100.00
70103;BME280;57470;50.034;15.256;2024-03-02T01:08:16;98468.13;;;10.39;100.00
70103;BME280;57470;50.034;15.256;2024-03-02T01:10:41;98467.78;;;10.33;100.00
70103;BME280;57470;50.034;15.256;2024-03-02T01:13:07;98460.13;;;10.19;100.00
70103;BME280;57470;50.034;15.256;2024-03-02T01:15:33;98461.19;;;10.16;100.00
70103;BME280;57470;50.034;15.256;2024-03-02T01:17:58;98469.28;;;10.26;100.00
70103;BME280;57470;50.034;15.256;2024-03-02T01:20:24;98467.16;;;10.20;100.00
70103;BME280;57470;50.034;15.256;2024-03-02T01:22:50;98463.66;;;10.08;100.00
70103;BME280;57470;50.034;15.256;2024-03-02T01:25:15;98470.91;;;10.06;100.00
70103;BME280;57470;50.034;15.256;2024-03-02T01:27:41;98462.69;;;10.09;100.00
70103;BME280;57470;50.034;15.256;2024-03-02T01:30:07;98461.56;;;10.11;100.00
70103;BME280;57470;50.034;15.256;2024-03-02T01:32:32;98461.13;;;10.06;100.00
70103;BME280;57470;50.034;15.256;2024-03-02T01:34:58;98463.44;;;10.00;100.00
70103;BME280;57470;50.034;15.256;2024-03-02T01:37:23;98463.66;;;10.08;100.00
70103;BME280;57470;50.034;15.256;2024-03-02T01:39:48;98461.22;;;10.05;100.00
70103;BME280;57470;50.034;15.256;2024-03-02T01:42:14;98464.72;;;10.05;100.00
70103;BME280;57470;50.034;15.256;2024-03-02T01:44:40;98462.47;;;10.01;100.00
70103;BME280;57470;50.034;15.256;2024-03-02T01:47:05;98471.09;;;10.14;100.00
70103;BME280;57470;50.034;15.256;2024-03-02T01:49:31;98462.66;;;10.20;100.00
70103;BME280;57470;50.034;15.256;2024-03-02T01:51:58;98473.72;;;10.36;100.00
70103;BME280;57470;50.034;15.256;2024-03-02T01:54:23;98474.28;;;10.40;100.00
70103;BME280;57470;50.034;15.256;2024-03-02T01:56:48;98460.38;;;10.04;100.00
70103;BME280;57470;50.034;15.256;2024-03-02T01:59:14;98457.50;;;10.07;100.00
70103;BME280;57470;50.034;15.256;2024-03-02T02:01:39;98464.97;;;10.02;100.00
70103;BME280;57470;50.034;15.256;2024-03-02T02:04:05;98461.34;;;10.03;100.00
70103;BME280;57470;50.034;15.256;2024-03-02T02:06:33;98456.22;;;9.91;100.00
70103;BME280;57470;50.034;15.256;2024-03-02T02:09:00;98460.72;;;10.22;100.00
70103;BME280;57470;50.034;15.256;2024-03-02T02:11:26;98464.84;;;10.04;100.00
70103;BME280;57470;50.034;15.256;2024-03-02T02:13:53;98460.22;;;10.17;100.00
70103;BME280;57470;50.034;15.256;2024-03-02T02:16:21;98458.84;;;10.02;100.00
70103;BME280;57470;50.034;15.256;2024-03-02T02:18:48;98469.94;;;10.07;100.00
70103;BME280;57470;50.034;15.256;2024-03-02T02:21:16;98470.56;;;9.99;100.00
70103;BME280;57470;50.034;15.256;2024-03-02T02:23:43;98471.41;;;10.32;100.00
70103;BME280;57470;50.034;15.256;2024-03-02T02:26:14;98468.56;;;10.24;99.48
70103;BME280;57470;50.034;15.256;2024-03-02T02:28:41;98465.03;;;10.55;97.79
70103;BME280;57470;50.034;15.256;2024-03-02T02:31:14;98455.16;;;10.25;97.74
70103;BME280;57470;50.034;15.256;2024-03-02T02:33:42;98454.81;;;10.19;98.94
70103;BME280;57470;50.034;15.256;2024-03-02T02:36:09;98450.63;;;10.37;98.05
70103;BME280;57470;50.034;15.256;2024-03-02T02:38:42;98458.47;;;10.59;96.37
70103;BME280;57470;50.034;15.256;2024-03-02T02:41:11;98452.31;;;10.59;96.01
70103;BME280;57470;50.034;15.256;2024-03-02T02:43:38;98448.22;;;10.02;97.43
70103;BME280;57470;50.034;15.256;2024-03-02T02:46:06;98449.69;;;10.47;96.53
70103;BME280;57470;50.034;15.256;2024-03-02T02:48:32;98446.91;;;10.49;95.54
70103;BME280;57470;50.034;15.256;2024-03-02T02:50:59;98445.03;;;10.19;96.14
70103;BME280;57470;50.034;15.256;2024-03-02T02:53:25;98443.16;;;9.99;97.10
70103;BME280;57470;50.034;15.256;2024-03-02T02:55:52;98442.06;;;10.01;96.86
70103;BME280;57470;50.034;15.256;2024-03-02T02:58:18;98444.56;;;9.71;98.72
70103;BME280;57470;50.034;15.256;2024-03-02T03:00:45;98435.25;;;9.11;100.00
70103;BME280;57470;50.034;15.256;2024-03-02T03:03:12;98440.44;;;8.90;100.00
70103;BME280;57470;50.034;15.256;2024-03-02T03:05:38;98441.28;;;9.02;100.00
70103;BME280;57470;50.034;15.256;2024-03-02T03:08:05;98434.88;;;8.71;100.00
70103;BME280;57470;50.034;15.256;2024-03-02T03:10:31;98443.81;;;8.81;100.00
70103;BME280;57470;50.034;15.256;2024-03-02T03:12:56;98447.53;;;8.90;100.00
70103;BME280;57470;50.034;15.256;2024-03-02T03:15:21;98452.94;;;9.44;100.00
70103;BME280;57470;50.034;15.256;2024-03-02T03:17:47;98457.50;;;9.64;100.00
70103;BME280;57470;50.034;15.256;2024-03-02T03:20:12;98457.31;;;9.88;98.99
70103;BME280;57470;50.034;15.256;2024-03-02T03:22:39;98457.38;;;9.66;98.01
70103;BME280;57470;50.034;15.256;2024-03-02T03:25:05;98449.09;;;9.48;96.30
70103;BME280;57470;50.034;15.256;2024-03-02T03:27:30;98454.41;;;9.37;96.16
70103;BME280;57470;50.034;15.256;2024-03-02T03:29:56;98455.50;;;9.23;96.20
70103;BME280;57470;50.034;15.256;2024-03-02T03:32:21;98462.72;;;9.32;96.00
70103;BME280;57470;50.034;15.256;2024-03-02T03:34:46;98447.56;;;9.12;95.93
70103;BME280;57470;50.034;15.256;2024-03-02T03:37:13;98448.53;;;9.11;95.67
70103;BME280;57470;50.034;15.256;2024-03-02T03:39:38;98458.28;;;9.11;95.39
70103;BME280;57470;50.034;15.256;2024-03-02T03:42:04;98458.53;;;9.19;95.42
70103;BME280;57470;50.034;15.256;2024-03-02T03:44:29;98461.19;;;9.19;94.92
70103;BME280;57470;50.034;15.256;2024-03-02T03:46:55;98461.91;;;9.21;95.88
70103;BME280;57470;50.034;15.256;2024-03-02T03:49:20;98462.38;;;9.15;95.79
70103;BME280;57470;50.034;15.256;2024-03-02T03:51:46;98450.56;;;8.85;98.72
70103;BME280;57470;50.034;15.256;2024-03-02T03:54:11;98458.72;;;8.71;99.79
70103;BME280;57470;50.034;15.256;2024-03-02T03:56:37;98466.47;;;9.08;100.00
70103;BME280;57470;50.034;15.256;2024-03-02T03:59:02;98465.75;;;8.94;100.00
70103;BME280;57470;50.034;15.256;2024-03-02T04:01:28;98463.31;;;8.80;100.00
70103;BME280;57470;50.034;15.256;2024-03-02T04:03:53;98464.91;;;9.05;100.00
70103;BME280;57470;50.034;15.256;2024-03-02T04:06:19;98465.03;;;9.26;100.00
70103;BME280;57470;50.034;15.256;2024-03-02T04:08:44;98470.09;;;9.29;98.98
70103;BME280;57470;50.034;15.256;2024-03-02T04:11:09;98477.91;;;9.53;98.07
70103;BME280;57470;50.034;15.256;2024-03-02T04:13:35;98476.03;;;9.21;96.76
70103;BME280;57470;50.034;15.256;2024-03-02T04:16:00;98469.34;;;9.04;97.22
70103;BME280;57470;50.034;15.256;2024-03-02T04:18:26;98479.88;;;9.28;97.60
70103;BME280;57470;50.034;15.256;2024-03-02T04:20:51;98487.44;;;9.44;97.84
70103;BME280;57470;50.034;15.256;2024-03-02T04:23:17;98486.63;;;9.10;98.07
70103;BME280;57470;50.034;15.256;2024-03-02T04:25:42;98481.66;;;9.17;97.97
70103;BME280;57470;50.034;15.256;2024-03-02T04:28:07;98487.09;;;9.15;97.45
70103;BME280;57470;50.034;15.256;2024-03-02T04:30:33;98486.97;;;9.17;96.53
70103;BME280;57470;50.034;15.256;2024-03-02T04:32:58;98494.44;;;9.45;96.09
70103;BME280;57470;50.034;15.256;2024-03-02T04:35:24;98490.25;;;9.20;96.31
70103;BME280;57470;50.034;15.256;2024-03-02T04:37:50;98488.16;;;9.13;96.85
70103;BME280;57470;50.034;15.256;2024-03-02T04:40:15;98488.97;;;8.57;98.90
70103;BME280;57470;50.034;15.256;2024-03-02T04:42:41;98482.81;;;8.68;98.88
70103;BME280;57470;50.034;15.256;2024-03-02T04:45:06;98485.31;;;8.47;99.51
70103;BME280;57470;50.034;15.256;2024-03-02T04:47:32;98483.75;;;8.56;99.72
70103;BME280;57470;50.034;15.256;2024-03-02T04:49:58;98486.38;;;8.45;100.00
70103;BME280;57470;50.034;15.256;2024-03-02T04:52:23;98493.69;;;8.76;99.48
70103;BME280;57470;50.034;15.256;2024-03-02T04:54:48;98499.00;;;8.76;99.69
70103;BME280;57470;50.034;15.256;2024-03-02T04:57:32;98496.28;;;8.54;99.87
70103;BME280;57470;50.034;15.256;2024-03-02T04:59:57;98501.16;;;8.36;100.00
70103;BME280;57470;50.034;15.256;2024-03-02T05:02:23;98502.00;;;8.37;100.00
70103;BME280;57470;50.034;15.256;2024-03-02T05:04:48;98507.25;;;8.60;100.00
70103;BME280;57470;50.034;15.256;2024-03-02T05:07:14;98510.31;;;8.67;100.00
70103;BME280;57470;50.034;15.256;2024-03-02T05:09:40;98510.16;;;8.57;100.00
70103;BME280;57470;50.034;15.256;2024-03-02T05:12:05;98511.97;;;8.68;100.00
70103;BME280;57470;50.034;15.256;2024-03-02T05:14:49;98515.00;;;8.86;99.87
70103;BME280;57470;50.034;15.256;2024-03-02T05:17:15;98516.59;;;8.88;98.49
70103;BME280;57470;50.034;15.256;2024-03-02T05:19:40;98513.34;;;8.85;96.98
70103;BME280;57470;50.034;15.256;2024-03-02T05:22:06;98516.06;;;8.61;96.96
70103;BME280;57470;50.034;15.256;2024-03-02T05:24:31;98523.88;;;8.62;97.12
70103;BME280;57470;50.034;15.256;2024-03-02T05:26:56;98514.34;;;8.49;97.10
70103;BME280;57470;50.034;15.256;2024-03-02T05:29:22;98516.75;;;8.52;97.23
70103;BME280;57470;50.034;15.256;2024-03-02T05:31:48;98513.38;;;8.50;97.17
70103;BME280;57470;50.034;15.256;2024-03-02T05:34:13;98521.50;;;8.71;95.77
70103;BME280;57470;50.034;15.256;2024-03-02T05:36:39;98531.25;;;8.70;95.03
70103;BME280;57470;50.034;15.256;2024-03-02T05:39:05;98519.41;;;8.52;94.93
70103;BME280;57470;50.034;15.256;2024-03-02T05:41:34;98529.31;;;8.61;96.32
70103;BME280;57470;50.034;15.256;2024-03-02T05:43:59;98524.28;;;8.34;96.22
70103;BME280;57470;50.034;15.256;2024-03-02T05:46:25;98532.03;;;8.24;96.91
70103;BME280;57470;50.034;15.256;2024-03-02T05:48:50;98536.66;;;8.34;96.31
70103;BME280;57470;50.034;15.256;2024-03-02T05:51:15;98527.13;;;8.07;96.40
70103;BME280;57470;50.034;15.256;2024-03-02T05:53:41;98531.63;;;8.18;96.61
70103;BME280;57470;50.034;15.256;2024-03-02T05:56:07;98533.44;;;8.17;96.71
70103;BME280;57470;50.034;15.256;2024-03-02T05:58:33;98532.59;;;8.17;95.71
70103;BME280;57470;50.034;15.256;2024-03-02T06:01:16;98535.47;;;8.14;96.07
70103;BME280;57470;50.034;15.256;2024-03-02T06:03:43;98529.44;;;8.12;95.85
70103;BME280;57470;50.034;15.256;2024-03-02T06:06:08;98544.78;;;8.19;95.69
70103;BME280;57470;50.034;15.256;2024-03-02T06:08:34;98539.41;;;8.08;95.31
70103;BME280;57470;50.034;15.256;2024-03-02T06:11:00;98539.03;;;8.02;95.32
70103;BME280;57470;50.034;15.256;2024-03-02T06:13:25;98554.25;;;8.11;95.62
70103;BME280;57470;50.034;15.256;2024-03-02T06:15:52;98547.28;;;7.97;96.00
70103;BME280;57470;50.034;15.256;2024-03-02T06:18:17;98559.59;;;8.22;95.91
70103;BME280;57470;50.034;15.256;2024-03-02T06:20:42;98565.13;;;8.19;95.51
70103;BME280;57470;50.034;15.256;2024-03-02T06:23:08;98558.59;;;8.12;95.89
70103;BME280;57470;50.034;15.256;2024-03-02T06:25:33;98567.66;;;8.20;95.62
70103;BME280;57470;50.034;15.256;2024-03-02T06:27:59;98566.47;;;8.24;96.50
70103;BME280;57470;50.034;15.256;2024-03-02T06:30:24;98570.91;;;8.24;96.75
70103;BME280;57470;50.034;15.256;2024-03-02T06:32:50;98583.78;;;8.41;96.77
70103;BME280;57470;50.034;15.256;2024-03-02T06:35:15;98584.63;;;8.42;97.15
70103;BME280;57470;50.034;15.256;2024-03-02T06:37:40;98581.81;;;8.32;98.50
70103;BME280;57470;50.034;15.256;2024-03-02T06:40:07;98593.56;;;8.41;98.47
70103;BME280;57470;50.034;15.256;2024-03-02T06:42:35;98590.44;;;8.23;98.57
70103;BME280;57470;50.034;15.256;2024-03-02T06:45:02;98601.22;;;8.56;99.31
70103;BME280;57470;50.034;15.256;2024-03-02T06:47:28;98602.63;;;8.73;98.58
70103;BME280;57470;50.034;15.256;2024-03-02T06:49:53;98600.28;;;8.69;98.70
70103;BME280;57470;50.034;15.256;2024-03-02T06:52:19;98613.66;;;8.91;98.18
70103;BME280;57470;50.034;15.256;2024-03-02T06:54:45;98614.16;;;9.07;97.59
70103;BME280;57470;50.034;15.256;2024-03-02T06:57:11;98614.38;;;9.04;97.43
70103;BME280;57470;50.034;15.256;2024-03-02T06:59:36;98621.69;;;9.24;96.81
70103;BME280;57470;50.034;15.256;2024-03-02T07:02:02;98622.03;;;9.31;96.28
70103;BME280;57470;50.034;15.256;2024-03-02T07:04:27;98621.13;;;9.43;96.15
70103;BME280;57470;50.034;15.256;2024-03-02T07:06:52;98610.09;;;9.25;96.27
70103;BME280;57470;50.034;15.256;2024-03-02T07:09:18;98608.19;;;9.27;97.56
70103;BME280;57470;50.034;15.256;2024-03-02T07:11:43;98605.69;;;9.48;97.67
70103;BME280;57470;50.034;15.256;2024-03-02T07:14:09;98598.78;;;9.34;97.99
70103;BME280;57470;50.034;15.256;2024-03-02T07:16:37;98601.19;;;9.93;97.54
70103;BME280;57470;50.034;15.256;2024-03-02T07:19:03;98597.69;;;10.04;96.96
70103;BME280;57470;50.034;15.256;2024-03-02T07:21:29;98601.28;;;10.36;95.74
70103;BME280;57470;50.034;15.256;2024-03-02T07:23:54;98605.09;;;10.55;95.12
70103;BME280;57470;50.034;15.256;2024-03-02T07:26:19;98597.53;;;10.39;94.77
70103;BME280;57470;50.034;15.256;2024-03-02T07:28:48;98606.72;;;10.67;94.59
70103;BME280;57470;50.034;15.256;2024-03-02T07:31:14;98604.38;;;10.52;94.07
70103;BME280;57470;50.034;15.256;2024-03-02T07:33:40;98608.16;;;10.82;93.99
70103;BME280;57470;50.034;15.256;2024-03-02T07:36:06;98605.00;;;10.77;93.79
70103;BME280;57470;50.034;15.256;2024-03-02T07:38:32;98609.31;;;10.89;94.42
70103;BME280;57470;50.034;15.256;2024-03-02T07:40:59;98614.31;;;11.24;94.54
70103;BME280;57470;50.034;15.256;2024-03-02T07:43:25;98624.00;;;11.25;94.31
70103;BME280;57470;50.034;15.256;2024-03-02T07:45:51;98629.97;;;11.38;94.66
70103;BME280;57470;50.034;15.256;2024-03-02T07:48:16;98634.31;;;11.60;94.26
70103;BME280;57470;50.034;15.256;2024-03-02T07:50:42;98645.72;;;11.72;94.94
70103;BME280;57470;50.034;15.256;2024-03-02T07:53:08;98640.13;;;11.95;94.71
70103;BME280;57470;50.034;15.256;2024-03-02T07:55:34;98643.00;;;12.13;92.74
70103;BME280;57470;50.034;15.256;2024-03-02T07:58:02;98643.19;;;12.31;91.38
70103;BME280;57470;50.034;15.256;2024-03-02T08:00:28;98638.84;;;12.39;91.37
70103;BME280;57470;50.034;15.256;2024-03-02T08:02:54;98649.28;;;12.52;89.57
70103;BME280;57470;50.034;15.256;2024-03-02T08:05:20;98644.75;;;12.53;88.86
70103;BME280;57470;50.034;15.256;2024-03-02T08:07:46;98637.22;;;12.67;87.37
70103;BME280;57470;50.034;15.256;2024-03-02T08:10:12;98639.84;;;12.48;87.58
70103;BME280;57470;50.034;15.256;2024-03-02T08:12:38;98643.94;;;11.31;89.95
70103;BME280;57470;50.034;15.256;2024-03-02T08:15:03;98651.19;;;11.28;90.13
70103;BME280;57470;50.034;15.256;2024-03-02T08:17:29;98655.03;;;11.77;90.72
70103;BME280;57470;50.034;15.256;2024-03-02T08:19:55;98646.91;;;11.37;91.16
70103;BME280;57470;50.034;15.256;2024-03-02T08:22:21;98642.41;;;11.38;91.60
70103;BME280;57470;50.034;15.256;2024-03-02T08:24:46;98646.63;;;11.19;91.96
70103;BME280;57470;50.034;15.256;2024-03-02T08:27:12;98644.91;;;12.01;90.90
70103;BME280;57470;50.034;15.256;2024-03-02T08:29:37;98635.72;;;11.85;90.60
70103;BME280;57470;50.034;15.256;2024-03-02T08:32:04;98652.53;;;11.85;91.58
70103;BME280;57470;50.034;15.256;2024-03-02T08:34:30;98645.53;;;12.15;91.88
70103;BME280;57470;50.034;15.256;2024-03-02T08:36:55;98635.34;;;12.39;88.45
70103;BME280;57470;50.034;15.256;2024-03-02T08:39:20;98638.75;;;12.79;88.63
70103;BME280;57470;50.034;15.256;2024-03-02T08:41:46;98640.19;;;12.84;88.80
70103;BME280;57470;50.034;15.256;2024-03-02T08:44:13;98639.72;;;12.10;89.82
70103;BME280;57470;50.034;15.256;2024-03-02T08:46:39;98647.47;;;12.91;87.96
70103;BME280;57470;50.034;15.256;2024-03-02T08:49:04;98642.66;;;12.47;88.05
70103;BME280;57470;50.034;15.256;2024-03-02T08:51:30;98639.56;;;12.01;88.16
70103;BME280;57470;50.034;15.256;2024-03-02T08:53:56;98637.78;;;12.12;90.34
70103;BME280;57470;50.034;15.256;2024-03-02T08:56:23;98637.53;;;11.84;89.11
70103;BME280;57470;50.034;15.256;2024-03-02T08:58:49;98648.81;;;12.47;86.66
70103;BME280;57470;50.034;15.256;2024-03-02T09:01:15;98652.13;;;11.80;89.51
70103;BME280;57470;50.034;15.256;2024-03-02T09:03:42;98657.59;;;12.19;90.35
70103;BME280;57470;50.034;15.256;2024-03-02T09:06:10;98650.75;;;11.44;89.80
70103;BME280;57470;50.034;15.256;2024-03-02T09:08:35;98655.47;;;12.13;90.71
70103;BME280;57470;50.034;15.256;2024-03-02T09:11:02;98654.09;;;11.67;89.92
70103;BME280;57470;50.034;15.256;2024-03-02T09:13:28;98659.72;;;12.25;88.93
70103;BME280;57470;50.034;15.256;2024-03-02T09:15:54;98668.53;;;11.85;89.89
70103;BME280;57470;50.034;15.256;2024-03-02T09:18:19;98661.31;;;11.97;90.24
70103;BME280;57470;50.034;15.256;2024-03-02T09:20:45;98660.72;;;11.93;89.39
70103;BME280;57470;50.034;15.256;2024-03-02T09:23:11;98661.25;;;12.27;87.75
70103;BME280;57470;50.034;15.256;2024-03-02T09:25:36;98663.03;;;12.08;89.59
70103;BME280;57470;50.034;15.256;2024-03-02T09:28:02;98655.97;;;12.37;87.20
70103;BME280;57470;50.034;15.256;2024-03-02T09:30:28;98659.50;;;12.47;86.14
70103;BME280;57470;50.034;15.256;2024-03-02T09:32:53;98657.09;;;12.44;87.25
70103;BME280;57470;50.034;15.256;2024-03-02T09:35:19;98664.44;;;11.81;88.58
70103;BME280;57470;50.034;15.256;2024-03-02T09:37:45;98657.56;;;11.58;87.68
70103;BME280;57470;50.034;15.256;2024-03-02T09:40:12;98663.19;;;11.64;87.88
70103;BME280;57470;50.034;15.256;2024-03-02T09:42:38;98660.09;;;11.80;87.43
70103;BME280;57470;50.034;15.256;2024-03-02T09:45:05;98667.16;;;11.91;86.61
70103;BME280;57470;50.034;15.256;2024-03-02T09:47:30;98662.56;;;12.02;87.64
70103;BME280;57470;50.034;15.256;2024-03-02T09:49:56;98670.81;;;12.30;85.59
70103;BME280;57470;50.034;15.256;2024-03-02T09:52:25;98660.22;;;12.09;85.51
70103;BME280;57470;50.034;15.256;2024-03-02T09:54:50;98671.84;;;11.98;86.58
70103;BME280;57470;50.034;15.256;2024-03-02T09:57:16;98660.63;;;12.54;86.71
70103;BME280;57470;50.034;15.256;2024-03-02T09:59:41;98663.25;;;13.23;85.50
70103;BME280;57470;50.034;15.256;2024-03-02T10:02:07;98657.75;;;12.27;84.40
70103;BME280;57470;50.034;15.256;2024-03-02T10:04:33;98660.00;;;11.91;84.75
70103;BME280;57470;50.034;15.256;2024-03-02T10:07:19;98653.72;;;12.32;86.29
70103;BME280;57470;50.034;15.256;2024-03-02T10:09:46;98649.47;;;12.20;84.46
70103;BME280;57470;50.034;15.256;2024-03-02T10:12:12;98652.69;;;12.83;84.35
70103;BME280;57470;50.034;15.256;2024-03-02T10:14:38;98656.69;;;12.39;85.10
70103;BME280;57470;50.034;15.256;2024-03-02T10:17:09;98662.06;;;12.58;84.89
70103;BME280;57470;50.034;15.256;2024-03-02T10:19:38;98657.25;;;12.43;84.48
70103;BME280;57470;50.034;15.256;2024-03-02T10:22:06;98655.78;;;12.78;83.58
70103;BME280;57470;50.034;15.256;2024-03-02T10:24:42;98650.28;;;12.70;84.67
70103;BME280;57470;50.034;15.256;2024-03-02T10:27:16;98655.09;;;12.96;84.41
70103;BME280;57470;50.034;15.256;2024-03-02T10:29:46;98652.53;;;13.42;83.40
70103;BME280;57470;50.034;15.256;2024-03-02T10:32:12;98637.47;;;12.64;82.43
70103;BME280;57470;50.034;15.256;2024-03-02T10:34:39;98651.31;;;13.27;81.97
70103;BME280;57470;50.034;15.256;2024-03-02T10:37:06;98644.81;;;13.49;80.89
70103;BME280;57470;50.034;15.256;2024-03-02T10:39:35;98638.06;;;13.45;79.67
70103;BME280;57470;50.034;15.256;2024-03-02T10:42:02;98638.28;;;14.08;78.93
70103;BME280;57470;50.034;15.256;2024-03-02T10:44:29;98635.09;;;13.58;78.69
70103;BME280;57470;50.034;15.256;2024-03-02T10:46:55;98637.50;;;13.12;80.60
70103;BME280;57470;50.034;15.256;2024-03-02T10:49:23;98637.66;;;13.11;82.04
70103;BME280;57470;50.034;15.256;2024-03-02T10:51:50;98631.59;;;12.90;81.20
70103;BME280;57470;50.034;15.256;2024-03-02T10:54:15;98636.69;;;13.78;81.50
70103;BME280;57470;50.034;15.256;2024-03-02T10:56:42;98630.34;;;12.94;80.75
70103;BME280;57470;50.034;15.256;2024-03-02T10:59:16;98630.78;;;12.70;82.81
70103;BME280;57470;50.034;15.256;2024-03-02T11:01:44;98639.56;;;13.67;81.55
70103;BME280;57470;50.034;15.256;2024-03-02T11:04:12;98633.38;;;13.66;79.74
70103;BME280;57470;50.034;15.256;2024-03-02T11:06:42;98632.81;;;13.63;80.63
70103;BME280;57470;50.034;15.256;2024-03-02T11:09:10;98631.81;;;13.73;79.80
70103;BME280;57470;50.034;15.256;2024-03-02T11:11:40;98635.41;;;13.35;81.49
70103;BME280;57470;50.034;15.256;2024-03-02T11:14:12;98637.47;;;13.98;79.17
70103;BME280;57470;50.034;15.256;2024-03-02T11:16:38;98627.56;;;13.80;79.85
70103;BME280;57470;50.034;15.256;2024-03-02T11:19:10;98626.50;;;14.01;79.42
70103;BME280;57470;50.034;15.256;2024-03-02T11:21:37;98630.19;;;13.90;79.17
70103;BME280;57470;50.034;15.256;2024-03-02T11:26:47;98628.16;;;14.11;78.37
70103;BME280;57470;50.034;15.256;2024-03-02T11:32:15;98619.56;;;14.08;79.50
70103;BME280;57470;50.034;15.256;2024-03-02T11:34:45;98618.34;;;13.56;80.58
70103;BME280;57470;50.034;15.256;2024-03-02T11:37:15;98614.81;;;13.65;81.34
70103;BME280;57470;50.034;15.256;2024-03-02T11:39:42;98612.63;;;13.41;81.35
70103;BME280;57470;50.034;15.256;2024-03-02T11:42:08;98610.50;;;14.18;77.86
70103;BME280;57470;50.034;15.256;2024-03-02T11:44:35;98607.38;;;14.50;79.97
70103;BME280;57470;50.034;15.256;2024-03-02T11:47:05;98609.16;;;14.05;78.60
70103;BME280;57470;50.034;15.256;2024-03-02T11:49:41;98601.72;;;13.99;79.63
70103;BME280;57470;50.034;15.256;2024-03-02T11:52:09;98605.81;;;13.66;79.80
70103;BME280;57470;50.034;15.256;2024-03-02T11:54:36;98600.34;;;13.58;79.74
70103;BME280;57470;50.034;15.256;2024-03-02T11:57:05;98607.75;;;13.17;80.83
70103;BME280;57470;50.034;15.256;2024-03-02T11:59:31;98610.81;;;13.78;79.72
70103;BME280;57470;50.034;15.256;2024-03-02T12:01:57;98602.38;;;13.36;80.25
70103;BME280;57470;50.034;15.256;2024-03-02T12:04:23;98598.84;;;13.45;80.47
70103;BME280;57470;50.034;15.256;2024-03-02T12:06:56;98598.53;;;13.58;80.64
70103;BME280;57470;50.034;15.256;2024-03-02T12:09:22;98599.94;;;13.43;79.02
70103;BME280;57470;50.034;15.256;2024-03-02T12:11:47;98590.94;;;13.53;79.16
70103;BME280;57470;50.034;15.256;2024-03-02T12:14:13;98591.56;;;13.28;79.92
70103;BME280;57470;50.034;15.256;2024-03-02T12:16:38;98594.03;;;13.59;79.48
70103;BME280;57470;50.034;15.256;2024-03-02T12:19:05;98600.44;;;14.40;79.46
70103;BME280;57470;50.034;15.256;2024-03-02T12:21:31;98597.47;;;14.78;77.49
70103;BME280;57470;50.034;15.256;2024-03-02T12:23:57;98596.41;;;14.71;76.78
70103;BME280;57470;50.034;15.256;2024-03-02T12:26:22;98585.22;;;14.13;78.52
70103;BME280;57470;50.034;15.256;2024-03-02T12:28:48;98586.53;;;14.72;77.42
70103;BME280;57470;50.034;15.256;2024-03-02T12:31:14;98590.81;;;14.82;76.52
70103;BME280;57470;50.034;15.256;2024-03-02T12:33:40;98592.59;;;14.56;76.77
70103;BME280;57470;50.034;15.256;2024-03-02T12:36:09;98588.91;;;14.39;77.41
70103;BME280;57470;50.034;15.256;2024-03-02T12:38:34;98582.88;;;13.63;79.10
70103;BME280;57470;50.034;15.256;2024-03-02T12:41:00;98580.88;;;13.75;77.76
70103;BME280;57470;50.034;15.256;2024-03-02T12:43:30;98585.84;;;13.97;78.22
70103;BME280;57470;50.034;15.256;2024-03-02T12:45:56;98578.44;;;13.44;78.21
70103;BME280;57470;50.034;15.256;2024-03-02T12:48:21;98574.56;;;13.29;79.87
70103;BME280;57470;50.034;15.256;2024-03-02T12:50:47;98584.56;;;13.18;80.42
70103;BME280;57470;50.034;15.256;2024-03-02T12:53:15;98573.97;;;13.35;80.46
70103;BME280;57470;50.034;15.256;2024-03-02T12:55:44;98575.94;;;13.80;80.37
70103;BME280;57470;50.034;15.256;2024-03-02T12:58:20;98577.25;;;13.66;79.50